createdAt,value
2017-09-23T00:00:01.589Z,99.99
2017-09-23T00:01:54.589Z,99.99
2017-09-23T00:02:54.652Z,99.99
2017-09-23T00:04:47.659Z,99.99
2017-09-23T00:05:47.704Z,99.99
2017-09-23T00:07:40.700Z,99.99
2017-09-23T00:08:40.765Z,99.99
2017-09-23T00:10:33.776Z,99.99
2017-09-23T00:11:33.818Z,99.99
2017-09-23T00:13:26.833Z,99.99
2017-09-23T00:14:26.877Z,99.99
2017-09-23T00:16:19.869Z,99.99
2017-09-23T00:17:19.935Z,99.99
2017-09-23T00:19:12.961Z,99.99
2017-09-23T00:20:13.000Z,99.99
2017-09-23T00:22:05.994Z,99.99
2017-09-23T00:23:06.057Z,99.99
2017-09-23T00:24:59.074Z,99.99
2017-09-23T00:25:59.119Z,99.99
2017-09-23T00:27:52.110Z,99.99
2017-09-23T00:28:52.172Z,99.99
2017-09-23T00:30:45.187Z,99.99
2017-09-23T00:31:45.225Z,99.99
2017-09-23T00:33:38.238Z,99.99
2017-09-23T00:34:38.280Z,99.99
2017-09-23T00:36:31.273Z,99.99
2017-09-23T00:37:31.334Z,99.99
2017-09-23T00:39:24.346Z,99.99
2017-09-23T00:40:24.390Z,99.99
2017-09-23T00:42:17.385Z,99.99
2017-09-23T00:43:17.451Z,99.99
2017-09-23T00:45:10.461Z,99.99
2017-09-23T00:46:10.507Z,99.99
2017-09-23T00:48:03.500Z,99.99
2017-09-23T00:49:03.562Z,99.99
2017-09-23T00:50:56.578Z,99.99
2017-09-23T00:51:56.619Z,99.99
2017-09-23T00:53:49.647Z,99.99
2017-09-23T00:54:49.678Z,99.99
2017-09-23T00:56:42.671Z,99.99
2017-09-23T00:57:42.731Z,99.99
2017-09-23T00:59:35.751Z,99.99
2017-09-23T01:00:35.788Z,99.99
2017-09-23T01:02:28.782Z,99.99
2017-09-23T01:03:28.844Z,99.99
2017-09-23T01:05:21.859Z,99.99
2017-09-23T01:06:21.902Z,99.99
2017-09-23T01:08:14.900Z,99.99
2017-09-23T01:09:14.963Z,99.99
2017-09-23T01:11:07.977Z,99.99
2017-09-23T01:12:08.020Z,99.99
2017-09-23T01:14:01.016Z,99.99
2017-09-23T01:15:01.080Z,99.99
2017-09-23T01:16:54.090Z,99.99
2017-09-23T01:17:54.134Z,99.99
2017-09-23T01:19:47.152Z,99.99
2017-09-23T01:20:47.195Z,99.99
2017-09-23T01:22:40.187Z,99.99
2017-09-23T01:23:40.248Z,99.99
2017-09-23T01:25:33.265Z,99.99
2017-09-23T01:26:33.307Z,99.99
2017-09-23T01:28:26.299Z,99.99
2017-09-23T01:29:26.361Z,99.99
2017-09-23T01:31:19.372Z,99.99
2017-09-23T01:32:19.415Z,99.99
2017-09-23T01:34:12.412Z,99.99
2017-09-23T01:35:12.475Z,99.99
2017-09-23T01:37:05.493Z,99.99
2017-09-23T01:38:05.538Z,99.99
2017-09-23T01:39:58.551Z,99.99
2017-09-23T01:40:58.594Z,99.99
2017-09-23T01:42:51.606Z,99.99
2017-09-23T01:43:51.653Z,99.99
2017-09-23T01:45:44.664Z,99.99
2017-09-23T01:46:44.708Z,99.99
2017-09-23T01:48:37.701Z,99.99
2017-09-23T01:49:37.765Z,99.99
2017-09-23T01:51:30.780Z,99.99
2017-09-23T01:52:30.823Z,99.99
2017-09-23T01:54:23.819Z,99.99
2017-09-23T01:55:23.883Z,99.99
2017-09-23T01:57:16.896Z,99.99
2017-09-23T01:58:16.937Z,99.99
2017-09-23T02:00:09.947Z,99.99
2017-09-23T02:01:09.990Z,99.99
2017-09-23T02:03:02.987Z,99.99
2017-09-23T02:04:03.057Z,99.99
2017-09-23T02:05:56.067Z,99.99
2017-09-23T02:06:56.109Z,99.99
2017-09-23T02:08:49.104Z,99.99
2017-09-23T02:09:49.167Z,99.99
2017-09-23T02:11:42.176Z,99.99
2017-09-23T02:12:42.219Z,99.99
2017-09-23T02:14:35.213Z,99.99
2017-09-23T02:15:35.285Z,99.99
2017-09-23T02:17:28.301Z,99.99
2017-09-23T02:18:28.348Z,99.99
2017-09-23T02:20:21.351Z,99.99
2017-09-23T02:21:21.399Z,99.99
2017-09-23T02:23:14.390Z,99.99
2017-09-23T02:24:14.457Z,99.99
2017-09-23T02:26:07.464Z,99.99
2017-09-23T02:27:07.508Z,99.99
2017-09-23T02:29:00.500Z,99.99
2017-09-23T02:30:00.563Z,99.99
2017-09-23T02:31:53.579Z,99.99
2017-09-23T02:32:53.623Z,99.99
2017-09-23T02:34:46.615Z,99.99
2017-09-23T02:35:46.675Z,99.99
2017-09-23T02:37:39.685Z,99.99
2017-09-23T02:38:39.728Z,99.99
2017-09-23T02:40:32.745Z,99.99
2017-09-23T02:41:32.784Z,99.99
2017-09-23T02:43:25.772Z,99.99
2017-09-23T02:44:25.836Z,99.99
2017-09-23T02:46:18.845Z,99.99
2017-09-23T02:47:18.886Z,99.99
2017-09-23T02:49:11.879Z,99.99
2017-09-23T02:50:11.940Z,99.99
2017-09-23T02:52:04.951Z,99.99
2017-09-23T02:53:04.992Z,99.99
2017-09-23T02:54:57.986Z,99.99
2017-09-23T02:55:58.049Z,99.99
2017-09-23T02:57:51.065Z,99.99
2017-09-23T02:58:51.103Z,99.99
2017-09-23T03:00:44.114Z,99.99
2017-09-23T03:01:44.157Z,99.99
2017-09-23T03:03:37.148Z,99.99
2017-09-23T03:04:37.209Z,99.99
2017-09-23T03:06:30.225Z,99.99
2017-09-23T03:07:30.268Z,99.99
2017-09-23T03:09:23.260Z,99.99
2017-09-23T03:10:23.322Z,99.99
2017-09-23T03:12:16.335Z,99.99
2017-09-23T03:13:16.376Z,99.99
2017-09-23T03:15:09.375Z,99.99
2017-09-23T03:16:09.431Z,99.99
2017-09-23T03:18:02.441Z,99.99
2017-09-23T03:19:02.483Z,99.99
2017-09-23T03:20:55.493Z,99.99
2017-09-23T03:21:55.536Z,99.99
2017-09-23T03:23:48.531Z,99.99
2017-09-23T03:24:48.591Z,99.99
2017-09-23T03:26:41.600Z,99.99
2017-09-23T03:27:41.641Z,99.99
2017-09-23T03:29:34.632Z,99.99
2017-09-23T03:30:34.696Z,99.99
2017-09-23T03:32:28.218Z,99.99
2017-09-23T03:33:28.256Z,99.99
2017-09-23T03:35:21.248Z,99.99
2017-09-23T03:36:21.311Z,99.99
2017-09-23T03:38:14.321Z,99.99
2017-09-23T03:39:14.363Z,99.99
2017-09-23T03:41:07.373Z,99.99
2017-09-23T03:42:07.415Z,99.99
2017-09-23T03:44:00.405Z,99.99
2017-09-23T03:45:00.469Z,99.99
2017-09-23T03:46:53.476Z,99.99
2017-09-23T03:47:53.521Z,99.99
2017-09-23T03:49:46.511Z,99.99
2017-09-23T03:50:46.571Z,99.99
2017-09-23T03:52:39.590Z,99.99
2017-09-23T03:53:39.635Z,99.99
2017-09-23T03:55:32.626Z,99.99
2017-09-23T03:56:32.690Z,99.99
2017-09-23T03:58:25.700Z,99.99
2017-09-23T03:59:25.742Z,99.99
2017-09-23T04:01:18.760Z,99.99
2017-09-23T04:02:18.800Z,99.99
2017-09-23T04:04:11.793Z,99.99
2017-09-23T04:05:11.856Z,99.99
2017-09-23T04:07:04.867Z,99.99
2017-09-23T04:08:04.910Z,99.99
2017-09-23T04:09:57.901Z,99.99
2017-09-23T04:10:57.962Z,99.99
2017-09-23T04:12:50.974Z,99.99
2017-09-23T04:13:51.018Z,99.99
2017-09-23T04:15:44.015Z,99.99
2017-09-23T04:16:44.072Z,99.99
2017-09-23T04:18:37.088Z,99.99
2017-09-23T04:19:37.131Z,99.99
2017-09-23T04:21:30.144Z,99.99
2017-09-23T04:22:30.190Z,99.99
2017-09-23T04:24:23.180Z,99.99
2017-09-23T04:25:23.243Z,99.99
2017-09-23T04:27:16.252Z,99.99
2017-09-23T04:28:16.296Z,99.99
2017-09-23T04:30:09.285Z,99.99
2017-09-23T04:31:09.348Z,99.99
2017-09-23T04:33:02.869Z,99.99
2017-09-23T04:34:02.910Z,99.99
2017-09-23T04:35:55.899Z,99.99
2017-09-23T04:36:55.962Z,99.99
2017-09-23T04:38:48.972Z,99.99
2017-09-23T04:39:49.018Z,99.99
2017-09-23T04:41:42.026Z,99.99
2017-09-23T04:42:42.233Z,99.99
2017-09-23T04:44:35.059Z,99.99
2017-09-23T04:45:35.121Z,99.99
2017-09-23T04:47:28.132Z,99.99
2017-09-23T04:48:28.175Z,99.99
2017-09-23T04:50:21.166Z,99.99
2017-09-23T04:51:21.229Z,99.99
2017-09-23T04:53:14.237Z,99.99
2017-09-23T04:54:14.281Z,99.99
2017-09-23T04:56:07.271Z,99.99
2017-09-23T04:57:07.356Z,99.99
2017-09-23T04:59:00.341Z,99.99
2017-09-23T05:00:00.383Z,99.99
2017-09-23T05:01:53.391Z,99.99
2017-09-23T05:02:53.433Z,99.99
2017-09-23T05:04:46.425Z,99.99
2017-09-23T05:05:46.484Z,99.99
2017-09-23T05:07:39.494Z,99.99
2017-09-23T05:08:39.536Z,99.99
2017-09-23T05:10:32.527Z,99.99
2017-09-23T05:11:32.586Z,99.99
2017-09-23T05:13:25.603Z,99.99
2017-09-23T05:14:25.644Z,99.99
2017-09-23T05:16:18.651Z,99.99
2017-09-23T05:17:18.705Z,99.99
2017-09-23T05:19:11.714Z,99.99
2017-09-23T05:20:11.755Z,99.99
2017-09-23T05:22:04.767Z,99.99
2017-09-23T05:23:04.808Z,99.99
2017-09-23T05:24:57.799Z,99.99
2017-09-23T05:25:57.859Z,99.99
2017-09-23T05:27:50.872Z,99.99
2017-09-23T05:28:50.913Z,99.99
2017-09-23T05:30:43.906Z,99.99
2017-09-23T05:31:43.968Z,99.99
2017-09-23T05:33:36.990Z,99.99
2017-09-23T05:34:37.020Z,99.99
2017-09-23T05:36:30.011Z,99.99
2017-09-23T05:37:30.074Z,99.99
2017-09-23T05:39:23.088Z,99.99
2017-09-23T05:40:23.132Z,99.99
2017-09-23T05:42:16.138Z,99.99
2017-09-23T05:43:16.180Z,99.99
2017-09-23T05:45:09.175Z,99.99
2017-09-23T05:46:09.239Z,99.99
2017-09-23T05:48:02.252Z,99.99
2017-09-23T05:49:02.292Z,99.99
2017-09-23T05:50:55.284Z,99.99
2017-09-23T05:51:55.354Z,99.99
2017-09-23T05:53:48.355Z,99.99
2017-09-23T05:54:48.397Z,99.99
2017-09-23T05:56:41.387Z,99.99
2017-09-23T05:57:41.449Z,99.99
2017-09-23T05:59:34.460Z,99.99
2017-09-23T06:00:34.503Z,99.99
2017-09-23T06:02:27.548Z,99.99
2017-09-23T06:03:27.550Z,99.99
2017-09-23T06:05:20.542Z,99.99
2017-09-23T06:06:20.601Z,99.99
2017-09-23T06:08:13.609Z,99.99
2017-09-23T06:09:13.653Z,99.99
2017-09-23T06:11:06.642Z,99.99
2017-09-23T06:12:06.872Z,99.99
2017-09-23T06:14:00.224Z,99.99
2017-09-23T06:15:00.264Z,99.99
2017-09-23T06:16:53.252Z,99.90
2017-09-23T06:17:53.314Z,99.52
2017-09-23T06:19:46.330Z,99.62
2017-09-23T06:20:46.371Z,99.99
2017-09-23T06:22:39.388Z,99.76
2017-09-23T06:23:39.432Z,99.81
2017-09-23T06:25:32.422Z,99.52
2017-09-23T06:26:32.483Z,99.57
2017-09-23T06:28:25.498Z,99.76
2017-09-23T06:29:25.540Z,99.38
2017-09-23T06:31:18.530Z,99.57
2017-09-23T06:32:18.594Z,99.29
2017-09-23T06:34:11.603Z,98.90
2017-09-23T06:35:11.643Z,98.33
2017-09-23T06:37:04.638Z,98.71
2017-09-23T06:38:04.699Z,98.61
2017-09-23T06:39:57.715Z,97.95
2017-09-23T06:40:57.762Z,97.80
2017-09-23T06:42:50.780Z,96.84
2017-09-23T06:43:50.809Z,95.79
2017-09-23T06:45:43.801Z,94.69
2017-09-23T06:46:43.863Z,94.31
2017-09-23T06:48:36.870Z,94.02
2017-09-23T06:49:36.919Z,94.21
2017-09-23T06:51:29.907Z,94.50
2017-09-23T06:52:29.971Z,94.36
2017-09-23T06:54:22.985Z,94.93
2017-09-23T06:55:23.028Z,95.61
2017-09-23T06:57:16.022Z,96.03
2017-09-23T06:58:16.084Z,96.32
2017-09-23T07:00:09.108Z,96.42
2017-09-23T07:01:09.146Z,96.22
2017-09-23T07:03:02.166Z,96.42
2017-09-23T07:04:02.202Z,96.22
2017-09-23T07:05:55.211Z,94.55
2017-09-23T07:06:55.260Z,94.36
2017-09-23T07:08:48.270Z,92.87
2017-09-23T07:09:48.311Z,93.26
2017-09-23T07:11:41.302Z,92.68
2017-09-23T07:12:41.366Z,92.58
2017-09-23T07:14:34.380Z,92.78
2017-09-23T07:15:34.420Z,91.92
2017-09-23T07:17:27.414Z,90.38
2017-09-23T07:18:27.476Z,89.47
2017-09-23T07:20:20.488Z,80.55
2017-09-23T07:21:20.534Z,77.56
2017-09-23T07:23:13.547Z,73.33
2017-09-23T07:24:13.592Z,71.44
2017-09-23T07:26:06.591Z,68.13
2017-09-23T07:27:06.650Z,65.82
2017-09-23T07:28:59.664Z,63.82
2017-09-23T07:29:59.708Z,63.92
2017-09-23T07:31:52.709Z,63.56
2017-09-23T07:32:52.773Z,62.79
2017-09-23T07:34:45.793Z,61.37
2017-09-23T07:35:45.837Z,61.08
2017-09-23T07:37:38.839Z,59.83
2017-09-23T07:38:38.908Z,59.73
2017-09-23T07:40:31.930Z,60.09
2017-09-23T07:41:31.982Z,60.18
2017-09-23T07:43:24.999Z,60.86
2017-09-23T07:44:25.046Z,60.18
2017-09-23T07:46:18.048Z,60.28
2017-09-23T07:47:18.116Z,61.05
2017-09-23T07:49:11.145Z,60.05
2017-09-23T07:50:11.185Z,59.47
2017-09-23T07:52:04.197Z,58.21
2017-09-23T07:53:04.254Z,57.76
2017-09-23T07:54:57.277Z,56.92
2017-09-23T07:55:57.342Z,55.56
2017-09-23T07:57:50.339Z,55.30
2017-09-23T07:58:50.410Z,54.84
2017-09-23T08:00:43.435Z,53.70
2017-09-23T08:01:43.486Z,52.47
2017-09-23T08:03:37.017Z,51.79
2017-09-23T08:04:37.064Z,51.23
2017-09-23T08:06:30.068Z,50.16
2017-09-23T08:07:30.136Z,50.34
2017-09-23T08:09:23.166Z,50.50
2017-09-23T08:10:23.213Z,51.47
2017-09-23T08:12:16.216Z,51.79
2017-09-23T08:13:16.286Z,50.92
2017-09-23T08:15:09.315Z,52.58
2017-09-23T08:16:09.365Z,54.08
2017-09-23T08:18:02.370Z,56.32
2017-09-23T08:19:02.437Z,59.74
2017-09-23T08:20:55.462Z,63.89
2017-09-23T08:21:55.510Z,65.40
2017-09-23T08:23:48.534Z,68.99
2017-09-23T08:24:48.584Z,70.01
2017-09-23T08:26:41.585Z,71.71
2017-09-23T08:27:41.656Z,71.33
2017-09-23T08:29:34.678Z,71.36
2017-09-23T08:30:34.726Z,71.08
2017-09-23T08:32:27.729Z,71.55
2017-09-23T08:33:27.803Z,71.75
2017-09-23T08:35:20.821Z,71.75
2017-09-23T08:36:20.867Z,72.42
2017-09-23T08:38:14.378Z,71.46
2017-09-23T08:39:14.444Z,71.36
2017-09-23T08:41:07.470Z,72.29
2017-09-23T08:42:07.518Z,73.06
2017-09-23T08:44:00.539Z,73.35
2017-09-23T08:45:00.591Z,73.73
2017-09-23T08:46:53.586Z,73.25
2017-09-23T08:47:53.653Z,72.96
2017-09-23T08:49:46.675Z,73.25
2017-09-23T08:50:46.720Z,72.77
2017-09-23T08:52:39.720Z,73.50
2017-09-23T08:53:39.786Z,74.65
2017-09-23T08:55:32.805Z,75.04
2017-09-23T08:56:32.852Z,75.52
2017-09-23T08:58:25.850Z,75.42
2017-09-23T08:59:25.917Z,75.42
2017-09-23T09:01:18.937Z,74.69
2017-09-23T09:02:18.983Z,74.50
2017-09-23T09:04:12.003Z,73.54
2017-09-23T09:05:12.048Z,73.73
2017-09-23T09:07:05.047Z,73.88
2017-09-23T09:08:05.113Z,75.52
2017-09-23T09:09:58.133Z,76.96
2017-09-23T09:10:58.182Z,76.67
2017-09-23T09:12:51.178Z,76.29
2017-09-23T09:13:51.244Z,75.46
2017-09-23T09:15:44.266Z,74.98
2017-09-23T09:16:44.310Z,75.37
2017-09-23T09:18:37.311Z,75.87
2017-09-23T09:19:37.380Z,77.31
2017-09-23T09:21:30.394Z,77.69
2017-09-23T09:22:30.441Z,77.21
2017-09-23T09:24:23.460Z,77.50
2017-09-23T09:25:23.505Z,76.92
2017-09-23T09:27:16.503Z,77.21
2017-09-23T09:28:16.571Z,77.69
2017-09-23T09:30:09.589Z,77.31
2017-09-23T09:31:09.646Z,77.63
2017-09-23T09:33:02.629Z,76.67
2017-09-23T09:34:02.697Z,77.53
2017-09-23T09:35:55.723Z,77.34
2017-09-23T09:36:55.766Z,76.86
2017-09-23T09:38:48.768Z,77.40
2017-09-23T09:39:48.830Z,77.78
2017-09-23T09:41:41.850Z,77.31
2017-09-23T09:42:41.896Z,76.98
2017-09-23T09:44:34.918Z,78.75
2017-09-23T09:45:34.959Z,78.42
2017-09-23T09:47:27.966Z,77.94
2017-09-23T09:48:28.031Z,78.42
2017-09-23T09:50:21.046Z,78.23
2017-09-23T09:51:21.091Z,79.19
2017-09-23T09:53:14.088Z,79.09
2017-09-23T09:54:14.155Z,79.19
2017-09-23T09:56:07.170Z,77.84
2017-09-23T09:57:07.485Z,77.31
2017-09-23T09:59:00.212Z,76.15
2017-09-23T10:00:00.279Z,77.31
2017-09-23T10:01:53.295Z,75.32
2017-09-23T10:02:53.341Z,76.09
2017-09-23T10:04:46.363Z,76.00
2017-09-23T10:05:46.405Z,75.37
2017-09-23T10:07:39.402Z,74.88
2017-09-23T10:08:39.469Z,75.46
2017-09-23T10:10:32.485Z,73.35
2017-09-23T10:11:32.531Z,73.15
2017-09-23T10:13:25.529Z,74.27
2017-09-23T10:14:25.595Z,75.04
2017-09-23T10:16:18.614Z,75.38
2017-09-23T10:17:18.659Z,76.15
2017-09-23T10:19:11.658Z,76.15
2017-09-23T10:20:11.725Z,74.94
2017-09-23T10:22:04.748Z,73.79
2017-09-23T10:23:04.795Z,74.08
2017-09-23T10:24:57.813Z,73.69
2017-09-23T10:25:57.860Z,73.21
2017-09-23T10:27:50.861Z,73.31
2017-09-23T10:28:50.923Z,73.11
2017-09-23T10:30:43.954Z,72.44
2017-09-23T10:31:43.997Z,72.44
2017-09-23T10:33:36.992Z,71.96
2017-09-23T10:34:37.062Z,72.64
2017-09-23T10:36:30.083Z,71.91
2017-09-23T10:37:30.126Z,71.81
2017-09-23T10:39:23.123Z,71.04
2017-09-23T10:40:23.188Z,70.75
2017-09-23T10:42:16.207Z,70.07
2017-09-23T10:43:16.251Z,69.50
2017-09-23T10:45:09.274Z,71.14
2017-09-23T10:46:09.321Z,74.50
2017-09-23T10:48:02.313Z,71.65
2017-09-23T10:49:02.380Z,71.08
2017-09-23T10:50:55.403Z,71.11
2017-09-23T10:51:55.442Z,69.57
2017-09-23T10:53:48.439Z,68.13
2017-09-23T10:54:48.506Z,66.68
2017-09-23T10:56:41.541Z,65.97
2017-09-23T10:57:41.572Z,65.78
2017-09-23T10:59:34.572Z,67.90
2017-09-23T11:00:34.640Z,68.19
2017-09-23T11:02:27.659Z,68.15
2017-09-23T11:03:27.706Z,67.96
2017-09-23T11:05:20.724Z,69.89
2017-09-23T11:06:20.783Z,71.00
2017-09-23T11:08:13.779Z,70.10
2017-09-23T11:09:13.838Z,70.39
2017-09-23T11:11:06.861Z,71.19
2017-09-23T11:12:06.906Z,71.00
2017-09-23T11:13:59.924Z,71.55
2017-09-23T11:14:59.995Z,70.68
2017-09-23T11:16:53.008Z,71.45
2017-09-23T11:17:53.054Z,72.69
2017-09-23T11:19:46.051Z,72.31
2017-09-23T11:20:46.116Z,73.27
2017-09-23T11:22:39.133Z,73.18
2017-09-23T11:23:39.180Z,72.89
2017-09-23T11:25:32.197Z,73.02
2017-09-23T11:26:32.244Z,71.16
2017-09-23T11:28:25.246Z,72.99
2017-09-23T11:29:25.307Z,72.69
2017-09-23T11:31:18.324Z,72.79
2017-09-23T11:32:18.376Z,72.99
2017-09-23T11:34:11.366Z,72.69
2017-09-23T11:35:11.434Z,72.50
2017-09-23T11:37:04.454Z,73.11
2017-09-23T11:38:04.503Z,72.92
2017-09-23T11:39:57.498Z,72.25
2017-09-23T11:40:57.562Z,72.54
2017-09-23T11:42:50.589Z,72.83
2017-09-23T11:43:50.636Z,72.73
2017-09-23T11:45:43.659Z,71.67
2017-09-23T11:46:43.702Z,71.42
2017-09-23T11:48:36.698Z,70.94
2017-09-23T11:49:36.763Z,71.87
2017-09-23T11:51:29.781Z,70.84
2017-09-23T11:52:29.826Z,71.23
2017-09-23T11:54:22.831Z,70.75
2017-09-23T11:55:22.889Z,70.94
2017-09-23T11:57:15.908Z,71.71
2017-09-23T11:58:15.950Z,71.14
2017-09-23T12:00:08.946Z,71.04
2017-09-23T12:01:09.015Z,70.84
2017-09-23T12:03:02.032Z,70.46
2017-09-23T12:04:02.081Z,71.23
2017-09-23T12:05:55.092Z,70.40
2017-09-23T12:06:55.138Z,70.01
2017-09-23T12:08:48.137Z,70.01
2017-09-23T12:09:48.203Z,69.24
2017-09-23T12:11:41.229Z,68.19
2017-09-23T12:12:41.278Z,67.80
2017-09-23T12:14:34.277Z,68.48
2017-09-23T12:15:34.342Z,69.15
2017-09-23T12:17:27.365Z,69.15
2017-09-23T12:18:27.414Z,69.15
2017-09-23T12:20:20.432Z,69.34
2017-09-23T12:21:20.479Z,68.96
2017-09-23T12:23:13.480Z,67.99
2017-09-23T12:24:13.546Z,68.86
2017-09-23T12:26:06.571Z,69.06
2017-09-23T12:27:06.618Z,69.15
2017-09-23T12:28:59.615Z,68.38
2017-09-23T12:29:59.679Z,69.15
2017-09-23T12:31:52.712Z,69.73
2017-09-23T12:32:52.770Z,69.06
2017-09-23T12:34:45.758Z,67.90
2017-09-23T12:35:45.825Z,68.67
2017-09-23T12:37:38.845Z,67.83
2017-09-23T12:38:38.894Z,67.83
2017-09-23T12:40:31.915Z,66.71
2017-09-23T12:41:31.955Z,66.04
2017-09-23T12:43:24.956Z,66.01
2017-09-23T12:44:25.020Z,66.68
2017-09-23T12:46:18.045Z,67.39
2017-09-23T12:47:18.091Z,68.41
2017-09-23T12:49:11.091Z,67.83
2017-09-23T12:50:11.158Z,67.35
2017-09-23T12:52:04.178Z,66.68
2017-09-23T12:53:04.222Z,67.55
2017-09-23T12:54:57.226Z,68.03
2017-09-23T12:55:57.297Z,67.83
2017-09-23T12:57:50.314Z,67.35
2017-09-23T12:58:50.367Z,67.35
2017-09-23T13:00:43.381Z,67.83
2017-09-23T13:01:43.432Z,67.74
2017-09-23T13:03:36.432Z,68.29
2017-09-23T13:04:36.499Z,68.67
2017-09-23T13:06:29.520Z,69.15
2017-09-23T13:07:29.569Z,69.24
2017-09-23T13:09:22.569Z,69.50
2017-09-23T13:10:22.636Z,70.07
2017-09-23T13:12:15.655Z,70.17
2017-09-23T13:13:15.699Z,69.50
2017-09-23T13:15:08.710Z,71.10
2017-09-23T13:16:08.774Z,70.23
2017-09-23T13:18:02.295Z,71.87
2017-09-23T13:19:02.344Z,71.58
2017-09-23T13:20:55.363Z,70.97
2017-09-23T13:21:55.403Z,72.64
2017-09-23T13:23:48.400Z,71.35
2017-09-23T13:24:48.466Z,71.96
2017-09-23T13:26:41.520Z,72.25
2017-09-23T13:27:41.532Z,72.54
2017-09-23T13:29:34.532Z,71.10
2017-09-23T13:30:34.598Z,69.85
2017-09-23T13:32:27.617Z,70.81
2017-09-23T13:33:27.661Z,71.29
2017-09-23T13:35:20.658Z,71.87
2017-09-23T13:36:20.723Z,71.48
2017-09-23T13:38:13.741Z,70.72
2017-09-23T13:39:13.785Z,71.10
2017-09-23T13:41:06.799Z,71.87
2017-09-23T13:42:06.845Z,71.39
2017-09-23T13:43:59.839Z,71.58
2017-09-23T13:44:59.905Z,71.87
2017-09-23T13:46:52.924Z,71.10
2017-09-23T13:47:52.968Z,71.29
2017-09-23T13:49:45.969Z,72.44
2017-09-23T13:50:46.035Z,73.11
2017-09-23T13:52:39.058Z,71.29
2017-09-23T13:53:39.100Z,69.75
2017-09-23T13:55:32.097Z,70.75
2017-09-23T13:56:32.164Z,69.02
2017-09-23T13:58:25.177Z,68.92
2017-09-23T13:59:25.222Z,70.75
2017-09-23T14:01:18.243Z,67.68
2017-09-23T14:02:18.282Z,67.48
2017-09-23T14:04:11.276Z,65.78
2017-09-23T14:05:11.342Z,64.92
2017-09-23T14:07:04.359Z,63.99
2017-09-23T14:08:04.404Z,62.74
2017-09-23T14:09:57.406Z,63.51
2017-09-23T14:10:57.472Z,64.73
2017-09-23T14:12:50.488Z,66.65
2017-09-23T14:13:50.532Z,66.27
2017-09-23T14:15:43.528Z,66.17
2017-09-23T14:16:43.596Z,66.74
2017-09-23T14:18:36.639Z,66.27
2017-09-23T14:19:36.687Z,66.84
2017-09-23T14:21:29.704Z,65.59
2017-09-23T14:22:29.748Z,66.17
2017-09-23T14:24:22.742Z,65.59
2017-09-23T14:25:22.808Z,64.95
2017-09-23T14:27:15.826Z,64.50
2017-09-23T14:28:15.872Z,64.21
2017-09-23T14:30:08.872Z,64.69
2017-09-23T14:31:08.936Z,64.15
2017-09-23T14:33:01.952Z,64.53
2017-09-23T14:34:01.999Z,64.31
2017-09-23T14:35:55.000Z,64.40
2017-09-23T14:36:55.061Z,64.21
2017-09-23T14:38:48.083Z,64.95
2017-09-23T14:39:48.130Z,64.37
2017-09-23T14:41:41.168Z,64.95
2017-09-23T14:42:41.221Z,66.10
2017-09-23T14:44:34.199Z,67.35
2017-09-23T14:45:34.265Z,67.32
2017-09-23T14:47:27.284Z,67.13
2017-09-23T14:48:27.341Z,67.86
2017-09-23T14:50:20.330Z,67.96
2017-09-23T14:51:20.395Z,69.02
2017-09-23T14:53:13.415Z,67.77
2017-09-23T14:54:13.468Z,69.02
2017-09-23T14:56:06.467Z,69.69
2017-09-23T14:57:06.533Z,70.27
2017-09-23T14:58:59.573Z,69.89
2017-09-23T14:59:59.609Z,68.63
2017-09-23T15:01:52.601Z,68.02
2017-09-23T15:02:52.688Z,67.64
2017-09-23T15:04:45.684Z,68.70
2017-09-23T15:05:45.729Z,68.31
2017-09-23T15:07:38.768Z,68.02
2017-09-23T15:08:38.799Z,68.98
2017-09-23T15:10:31.798Z,68.02
2017-09-23T15:11:31.861Z,68.51
2017-09-23T15:13:24.878Z,68.70
2017-09-23T15:14:24.936Z,68.89
2017-09-23T15:16:17.916Z,69.18
2017-09-23T15:17:17.983Z,68.60
2017-09-23T15:19:11.005Z,69.18
2017-09-23T15:20:11.050Z,69.75
2017-09-23T15:22:04.046Z,69.46
2017-09-23T15:23:04.113Z,69.18
2017-09-23T15:24:57.125Z,69.08
2017-09-23T15:25:57.170Z,68.02
2017-09-23T15:27:50.196Z,68.57
2017-09-23T15:28:50.239Z,68.76
2017-09-23T15:30:43.231Z,69.53
2017-09-23T15:31:43.297Z,68.76
2017-09-23T15:33:36.312Z,68.76
2017-09-23T15:34:36.366Z,68.66
2017-09-23T15:36:29.351Z,69.18
2017-09-23T15:37:29.419Z,68.60
2017-09-23T15:39:22.444Z,69.81
2017-09-23T15:40:22.476Z,70.04
2017-09-23T15:42:15.473Z,70.33
2017-09-23T15:43:15.540Z,69.95
2017-09-23T15:45:08.557Z,70.52
2017-09-23T15:46:08.601Z,71.19
2017-09-23T15:48:01.612Z,70.29
2017-09-23T15:49:01.658Z,70.68
2017-09-23T15:50:54.657Z,71.25
2017-09-23T15:51:54.769Z,71.73
2017-09-23T15:53:47.738Z,72.31
2017-09-23T15:54:47.786Z,72.50
2017-09-23T15:56:40.780Z,71.06
2017-09-23T15:57:40.850Z,71.16
2017-09-23T15:59:33.862Z,71.25
2017-09-23T16:00:33.906Z,70.68
2017-09-23T16:02:26.902Z,70.87
2017-09-23T16:03:26.967Z,72.69
2017-09-23T16:05:19.984Z,72.69
2017-09-23T16:06:20.027Z,73.08
2017-09-23T16:08:13.124Z,72.60
2017-09-23T16:09:13.087Z,72.89
2017-09-23T16:11:06.086Z,72.99
2017-09-23T16:12:06.154Z,72.28
2017-09-23T16:13:59.172Z,72.08
2017-09-23T16:14:59.211Z,71.70
2017-09-23T16:16:52.211Z,72.66
2017-09-23T16:17:52.273Z,73.33
2017-09-23T16:19:45.290Z,73.52
2017-09-23T16:20:45.334Z,73.81
2017-09-23T16:22:38.349Z,73.62
2017-09-23T16:23:38.401Z,74.29
2017-09-23T16:25:31.411Z,74.77
2017-09-23T16:26:31.458Z,74.87
2017-09-23T16:28:24.471Z,74.58
2017-09-23T16:29:24.516Z,74.39
2017-09-23T16:31:17.521Z,74.68
2017-09-23T16:32:17.582Z,74.68
2017-09-23T16:34:10.600Z,74.16
2017-09-23T16:35:10.639Z,74.29
2017-09-23T16:37:03.633Z,75.21
2017-09-23T16:38:03.700Z,74.64
2017-09-23T16:39:56.712Z,75.31
2017-09-23T16:40:56.756Z,75.31
2017-09-23T16:42:49.750Z,75.98
2017-09-23T16:43:49.815Z,76.07
2017-09-23T16:45:42.830Z,77.33
2017-09-23T16:46:42.873Z,77.51
2017-09-23T16:48:35.893Z,77.90
2017-09-23T16:49:35.932Z,78.19
2017-09-23T16:51:28.928Z,77.51
2017-09-23T16:52:28.990Z,77.61
2017-09-23T16:54:22.006Z,78.00
2017-09-23T16:55:22.047Z,77.42
2017-09-23T16:57:15.049Z,78.53
2017-09-23T16:58:15.116Z,78.92
2017-09-23T17:00:08.121Z,79.49
2017-09-23T17:01:08.168Z,78.72
2017-09-23T17:03:01.161Z,80.07
2017-09-23T17:04:01.226Z,81.22
2017-09-23T17:05:54.241Z,79.30
2017-09-23T17:06:54.283Z,80.07
2017-09-23T17:08:47.339Z,79.88
2017-09-23T17:09:47.346Z,80.93
2017-09-23T17:11:40.349Z,80.99
2017-09-23T17:12:40.412Z,81.18
2017-09-23T17:14:33.419Z,80.70
2017-09-23T17:15:33.464Z,81.18
2017-09-23T17:17:26.468Z,80.89
2017-09-23T17:18:26.521Z,82.14
2017-09-23T17:20:19.536Z,83.76
2017-09-23T17:21:19.577Z,84.44
2017-09-23T17:23:12.573Z,85.39
2017-09-23T17:24:12.634Z,85.39
2017-09-23T17:26:05.646Z,84.88
2017-09-23T17:27:05.690Z,84.88
2017-09-23T17:28:58.721Z,85.06
2017-09-23T17:29:58.749Z,84.68
2017-09-23T17:31:51.744Z,86.12
2017-09-23T17:32:51.810Z,86.41
2017-09-23T17:34:44.824Z,86.02
2017-09-23T17:35:44.867Z,86.21
2017-09-23T17:37:37.860Z,85.79
2017-09-23T17:38:37.926Z,85.88
2017-09-23T17:40:30.935Z,86.21
2017-09-23T17:41:30.980Z,86.50
2017-09-23T17:43:23.971Z,86.27
2017-09-23T17:44:24.034Z,87.23
2017-09-23T17:46:17.050Z,86.94
2017-09-23T17:47:17.090Z,87.13
2017-09-23T17:49:10.103Z,87.41
2017-09-23T17:50:10.145Z,87.32
2017-09-23T17:52:03.137Z,87.03
2017-09-23T17:53:03.202Z,87.41
2017-09-23T17:54:56.222Z,87.41
2017-09-23T17:55:56.293Z,87.41
2017-09-23T17:57:49.258Z,87.13
2017-09-23T17:58:49.322Z,87.61
2017-09-23T18:00:42.339Z,87.61
2017-09-23T18:01:42.379Z,88.18
2017-09-23T18:03:35.375Z,88.37
2017-09-23T18:04:35.441Z,87.95
2017-09-23T18:06:28.453Z,87.90
2017-09-23T18:07:28.498Z,87.66
2017-09-23T18:09:21.508Z,87.99
2017-09-23T18:10:21.553Z,87.32
2017-09-23T18:12:14.546Z,87.70
2017-09-23T18:13:14.614Z,87.23
2017-09-23T18:15:07.623Z,88.18
2017-09-23T18:16:07.669Z,88.62
2017-09-23T18:18:01.166Z,88.71
2017-09-23T18:19:01.225Z,88.71
2017-09-23T18:20:54.296Z,89.48
2017-09-23T18:21:54.289Z,89.58
2017-09-23T18:23:47.276Z,90.05
2017-09-23T18:24:47.339Z,89.48
2017-09-23T18:26:40.351Z,89.00
2017-09-23T18:27:40.392Z,89.09
2017-09-23T18:29:33.403Z,89.76
2017-09-23T18:30:33.449Z,90.44
2017-09-23T18:32:26.444Z,90.58
2017-09-23T18:33:26.536Z,90.30